sensor_id;sensor_type;location;lat;lon;timestamp;temperature;humidity
6792;DHT22;3433;48.730;9.108;2023-02-22T00:02:41;8.30;86.20
6792;DHT22;3433;48.730;9.108;2023-02-22T00:05:29;8.30;86.80
6792;DHT22;3433;48.730;9.108;2023-02-22T00:08:17;8.20;86.80
6792;DHT22;3433;48.730;9.108;2023-02-22T00:11:06;8.10;86.60
6792;DHT22;3433;48.730;9.108;2023-02-22T00:13:54;8.10;86.70
6792;DHT22;3433;48.730;9.108;2023-02-22T00:16:42;8.10;87.10
6792;DHT22;3433;48.730;9.108;2023-02-22T00:19:31;8.10;87.20
6792;DHT22;3433;48.730;9.108;2023-02-22T00:22:18;8.10;87.10
6792;DHT22;3433;48.730;9.108;2023-02-22T00:25:06;8.10;87.10
6792;DHT22;3433;48.730;9.108;2023-02-22T00:27:53;8.10;87.20
6792;DHT22;3433;48.730;9.108;2023-02-22T00:30:41;8.10;86.90
6792;DHT22;3433;48.730;9.108;2023-02-22T00:33:29;8.20;87.50
6792;DHT22;3433;48.730;9.108;2023-02-22T00:36:17;8.10;87.10
6792;DHT22;3433;48.730;9.108;2023-02-22T00:39:05;8.00;86.80
6792;DHT22;3433;48.730;9.108;2023-02-22T00:41:52;8.00;87.50
6792;DHT22;3433;48.730;9.108;2023-02-22T00:44:39;8.00;88.10
6792;DHT22;3433;48.730;9.108;2023-02-22T00:47:26;8.00;87.60
6792;DHT22;3433;48.730;9.108;2023-02-22T00:50:15;8.00;87.60
6792;DHT22;3433;48.730;9.108;2023-02-22T00:53:05;7.90;87.70
6792;DHT22;3433;48.730;9.108;2023-02-22T00:55:54;7.90;87.80
6792;DHT22;3433;48.730;9.108;2023-02-22T00:58:41;7.90;87.60
6792;DHT22;3433;48.730;9.108;2023-02-22T01:01:30;7.80;87.80
6792;DHT22;3433;48.730;9.108;2023-02-22T01:04:17;7.80;87.40
6792;DHT22;3433;48.730;9.108;2023-02-22T01:07:04;7.80;87.50
6792;DHT22;3433;48.730;9.108;2023-02-22T01:09:53;7.80;87.80
6792;DHT22;3433;48.730;9.108;2023-02-22T01:12:40;7.80;87.90
6792;DHT22;3433;48.730;9.108;2023-02-22T01:15:28;7.70;88.60
6792;DHT22;3433;48.730;9.108;2023-02-22T01:18:16;7.70;88.20
6792;DHT22;3433;48.730;9.108;2023-02-22T01:21:04;7.70;88.10
6792;DHT22;3433;48.730;9.108;2023-02-22T01:23:51;7.60;88.00
6792;DHT22;3433;48.730;9.108;2023-02-22T01:26:41;7.70;88.10
6792;DHT22;3433;48.730;9.108;2023-02-22T01:29:28;7.70;88.40
6792;DHT22;3433;48.730;9.108;2023-02-22T01:32:16;7.60;88.20
6792;DHT22;3433;48.730;9.108;2023-02-22T01:35:04;7.60;88.20
6792;DHT22;3433;48.730;9.108;2023-02-22T01:37:53;7.60;88.50
6792;DHT22;3433;48.730;9.108;2023-02-22T01:40:42;7.60;88.40
6792;DHT22;3433;48.730;9.108;2023-02-22T01:43:31;7.50;88.50
6792;DHT22;3433;48.730;9.108;2023-02-22T01:46:21;7.50;88.50
6792;DHT22;3433;48.730;9.108;2023-02-22T01:49:08;7.50;88.50
6792;DHT22;3433;48.730;9.108;2023-02-22T01:51:58;7.40;88.40
6792;DHT22;3433;48.730;9.108;2023-02-22T01:54:48;7.40;88.50
6792;DHT22;3433;48.730;9.108;2023-02-22T01:57:37;7.40;88.70
6792;DHT22;3433;48.730;9.108;2023-02-22T02:00:26;7.40;88.80
6792;DHT22;3433;48.730;9.108;2023-02-22T02:03:17;7.40;88.80
6792;DHT22;3433;48.730;9.108;2023-02-22T02:06:11;7.40;88.80
6792;DHT22;3433;48.730;9.108;2023-02-22T02:09:03;7.40;88.80
6792;DHT22;3433;48.730;9.108;2023-02-22T02:11:56;7.40;89.20
6792;DHT22;3433;48.730;9.108;2023-02-22T02:14:45;7.40;89.20
6792;DHT22;3433;48.730;9.108;2023-02-22T02:17:34;7.40;89.20
6792;DHT22;3433;48.730;9.108;2023-02-22T02:20:27;7.40;89.30
6792;DHT22;3433;48.730;9.108;2023-02-22T02:23:33;7.30;89.40
6792;DHT22;3433;48.730;9.108;2023-02-22T02:30:01;7.30;89.50
6792;DHT22;3433;48.730;9.108;2023-02-22T02:32:57;7.30;89.80
6792;DHT22;3433;48.730;9.108;2023-02-22T02:35:55;7.40;89.70
6792;DHT22;3433;48.730;9.108;2023-02-22T02:38:48;7.30;89.60
6792;DHT22;3433;48.730;9.108;2023-02-22T02:41:42;7.30;89.60
6792;DHT22;3433;48.730;9.108;2023-02-22T02:44:36;7.30;89.60
6792;DHT22;3433;48.730;9.108;2023-02-22T02:47:27;7.30;89.70
6792;DHT22;3433;48.730;9.108;2023-02-22T02:50:20;7.30;89.80
6792;DHT22;3433;48.730;9.108;2023-02-22T02:53:10;7.30;89.90
6792;DHT22;3433;48.730;9.108;2023-02-22T02:55:58;7.30;89.80
6792;DHT22;3433;48.730;9.108;2023-02-22T02:58:48;7.30;90.00
6792;DHT22;3433;48.730;9.108;2023-02-22T03:01:45;7.30;90.00
6792;DHT22;3433;48.730;9.108;2023-02-22T03:04:46;7.30;90.30
6792;DHT22;3433;48.730;9.108;2023-02-22T03:07:46;7.20;90.00
6792;DHT22;3433;48.730;9.108;2023-02-22T03:10:44;7.20;90.00
6792;DHT22;3433;48.730;9.108;2023-02-22T03:13:39;7.20;90.10
6792;DHT22;3433;48.730;9.108;2023-02-22T03:16:31;7.20;90.10
6792;DHT22;3433;48.730;9.108;2023-02-22T03:19:26;7.10;90.10
6792;DHT22;3433;48.730;9.108;2023-02-22T03:22:19;7.20;90.20
6792;DHT22;3433;48.730;9.108;2023-02-22T03:25:15;7.20;90.10
6792;DHT22;3433;48.730;9.108;2023-02-22T03:28:06;7.10;90.00
6792;DHT22;3433;48.730;9.108;2023-02-22T03:30:59;7.10;90.20
6792;DHT22;3433;48.730;9.108;2023-02-22T03:33:50;7.10;90.50
6792;DHT22;3433;48.730;9.108;2023-02-22T03:36:43;7.10;90.10
6792;DHT22;3433;48.730;9.108;2023-02-22T03:39:32;7.00;90.20
6792;DHT22;3433;48.730;9.108;2023-02-22T03:42:27;7.10;90.30
6792;DHT22;3433;48.730;9.108;2023-02-22T03:45:17;7.00;90.10
6792;DHT22;3433;48.730;9.108;2023-02-22T03:48:10;7.00;90.10
6792;DHT22;3433;48.730;9.108;2023-02-22T03:51:00;6.90;90.20
6792;DHT22;3433;48.730;9.108;2023-02-22T03:53:49;6.90;90.10
6792;DHT22;3433;48.730;9.108;2023-02-22T03:56:40;6.90;90.20
6792;DHT22;3433;48.730;9.108;2023-02-22T03:59:33;6.80;90.40
6792;DHT22;3433;48.730;9.108;2023-02-22T04:02:21;6.80;90.20
6792;DHT22;3433;48.730;9.108;2023-02-22T04:05:08;6.80;90.20
6792;DHT22;3433;48.730;9.108;2023-02-22T04:07:56;6.70;90.20
6792;DHT22;3433;48.730;9.108;2023-02-22T04:10:43;6.70;90.20
6792;DHT22;3433;48.730;9.108;2023-02-22T04:13:30;6.70;90.20
6792;DHT22;3433;48.730;9.108;2023-02-22T04:16:19;6.70;90.20
6792;DHT22;3433;48.730;9.108;2023-02-22T04:19:06;6.60;90.30
6792;DHT22;3433;48.730;9.108;2023-02-22T04:21:54;6.60;90.20
6792;DHT22;3433;48.730;9.108;2023-02-22T04:24:41;6.60;90.10
6792;DHT22;3433;48.730;9.108;2023-02-22T04:27:28;6.60;90.20
6792;DHT22;3433;48.730;9.108;2023-02-22T04:30:17;6.50;90.20
6792;DHT22;3433;48.730;9.108;2023-02-22T04:33:06;6.50;90.30
6792;DHT22;3433;48.730;9.108;2023-02-22T04:35:53;6.50;90.30
6792;DHT22;3433;48.730;9.108;2023-02-22T04:38:42;6.50;90.30
6792;DHT22;3433;48.730;9.108;2023-02-22T04:41:29;6.40;90.40
6792;DHT22;3433;48.730;9.108;2023-02-22T04:44:18;6.40;90.30
6792;DHT22;3433;48.730;9.108;2023-02-22T04:47:05;6.40;90.30
6792;DHT22;3433;48.730;9.108;2023-02-22T04:49:54;6.30;90.30
6792;DHT22;3433;48.730;9.108;2023-02-22T04:52:41;6.30;90.30
6792;DHT22;3433;48.730;9.108;2023-02-22T04:55:28;6.30;90.30
6792;DHT22;3433;48.730;9.108;2023-02-22T04:58:15;6.30;90.30
6792;DHT22;3433;48.730;9.108;2023-02-22T05:01:03;6.30;90.50
6792;DHT22;3433;48.730;9.108;2023-02-22T05:03:51;6.30;90.50
6792;DHT22;3433;48.730;9.108;2023-02-22T05:06:39;6.20;90.60
6792;DHT22;3433;48.730;9.108;2023-02-22T05:09:27;6.20;90.60
6792;DHT22;3433;48.730;9.108;2023-02-22T05:12:14;6.20;90.60
6792;DHT22;3433;48.730;9.108;2023-02-22T05:15:02;6.20;90.70
6792;DHT22;3433;48.730;9.108;2023-02-22T05:17:49;6.20;90.60
6792;DHT22;3433;48.730;9.108;2023-02-22T05:20:36;6.20;90.70
6792;DHT22;3433;48.730;9.108;2023-02-22T05:23:25;6.10;90.80
6792;DHT22;3433;48.730;9.108;2023-02-22T05:26:13;6.20;91.00
6792;DHT22;3433;48.730;9.108;2023-02-22T05:29:00;6.20;90.90
6792;DHT22;3433;48.730;9.108;2023-02-22T05:31:47;6.20;90.90
6792;DHT22;3433;48.730;9.108;2023-02-22T05:34:34;6.20;90.80
6792;DHT22;3433;48.730;9.108;2023-02-22T05:37:21;6.20;90.80
6792;DHT22;3433;48.730;9.108;2023-02-22T05:40:11;6.20;90.80
6792;DHT22;3433;48.730;9.108;2023-02-22T05:42:59;6.10;90.90
6792;DHT22;3433;48.730;9.108;2023-02-22T05:45:47;6.20;90.80
6792;DHT22;3433;48.730;9.108;2023-02-22T05:48:34;6.20;90.90
6792;DHT22;3433;48.730;9.108;2023-02-22T05:51:22;6.20;90.80
6792;DHT22;3433;48.730;9.108;2023-02-22T05:54:09;6.10;90.90
6792;DHT22;3433;48.730;9.108;2023-02-22T05:56:58;6.10;90.90
6792;DHT22;3433;48.730;9.108;2023-02-22T05:59:45;6.10;91.10
6792;DHT22;3433;48.730;9.108;2023-02-22T06:02:33;6.10;90.90
6792;DHT22;3433;48.730;9.108;2023-02-22T06:05:20;6.10;91.10
6792;DHT22;3433;48.730;9.108;2023-02-22T06:08:07;6.10;91.20
6792;DHT22;3433;48.730;9.108;2023-02-22T06:10:55;6.10;91.20
6792;DHT22;3433;48.730;9.108;2023-02-22T06:13:48;6.10;91.20
6792;DHT22;3433;48.730;9.108;2023-02-22T06:16:35;6.10;91.20
6792;DHT22;3433;48.730;9.108;2023-02-22T06:19:23;6.10;91.10
6792;DHT22;3433;48.730;9.108;2023-02-22T06:22:15;6.20;91.40
6792;DHT22;3433;48.730;9.108;2023-02-22T06:25:03;6.10;92.20
6792;DHT22;3433;48.730;9.108;2023-02-22T06:27:51;6.20;93.00
6792;DHT22;3433;48.730;9.108;2023-02-22T06:30:41;6.20;93.40
6792;DHT22;3433;48.730;9.108;2023-02-22T06:33:28;6.30;93.00
6792;DHT22;3433;48.730;9.108;2023-02-22T06:36:15;6.50;93.20
6792;DHT22;3433;48.730;9.108;2023-02-22T06:39:03;6.50;92.50
6792;DHT22;3433;48.730;9.108;2023-02-22T06:41:50;6.70;92.60
6792;DHT22;3433;48.730;9.108;2023-02-22T06:44:37;6.80;92.70
6792;DHT22;3433;48.730;9.108;2023-02-22T06:47:26;7.00;93.40
6792;DHT22;3433;48.730;9.108;2023-02-22T06:50:21;7.10;93.30
6792;DHT22;3433;48.730;9.108;2023-02-22T06:53:09;7.10;92.80
6792;DHT22;3433;48.730;9.108;2023-02-22T06:55:56;7.20;92.90
6792;DHT22;3433;48.730;9.108;2023-02-22T06:58:44;7.20;92.70
6792;DHT22;3433;48.730;9.108;2023-02-22T07:01:31;7.30;92.70
6792;DHT22;3433;48.730;9.108;2023-02-22T07:04:20;7.30;92.80
6792;DHT22;3433;48.730;9.108;2023-02-22T07:07:07;7.30;92.90
6792;DHT22;3433;48.730;9.108;2023-02-22T07:09:54;7.40;93.00
6792;DHT22;3433;48.730;9.108;2023-02-22T07:12:41;7.50;93.00
6792;DHT22;3433;48.730;9.108;2023-02-22T07:15:30;7.50;93.00
6792;DHT22;3433;48.730;9.108;2023-02-22T07:18:18;7.60;93.00
6792;DHT22;3433;48.730;9.108;2023-02-22T07:21:06;7.60;93.10
6792;DHT22;3433;48.730;9.108;2023-02-22T07:23:55;7.60;93.20
6792;DHT22;3433;48.730;9.108;2023-02-22T07:26:43;7.70;93.20
6792;DHT22;3433;48.730;9.108;2023-02-22T07:29:31;7.80;93.40
6792;DHT22;3433;48.730;9.108;2023-02-22T07:32:20;7.80;93.30
6792;DHT22;3433;48.730;9.108;2023-02-22T07:35:13;7.90;93.50
6792;DHT22;3433;48.730;9.108;2023-02-22T07:38:03;8.00;93.70
6792;DHT22;3433;48.730;9.108;2023-02-22T07:40:53;8.10;93.60
6792;DHT22;3433;48.730;9.108;2023-02-22T07:43:42;8.10;93.80
6792;DHT22;3433;48.730;9.108;2023-02-22T07:46:29;8.20;93.70
6792;DHT22;3433;48.730;9.108;2023-02-22T07:49:17;8.30;94.10
6792;DHT22;3433;48.730;9.108;2023-02-22T07:52:04;8.40;94.40
6792;DHT22;3433;48.730;9.108;2023-02-22T07:54:53;8.50;94.50
6792;DHT22;3433;48.730;9.108;2023-02-22T07:57:41;8.70;94.80
6792;DHT22;3433;48.730;9.108;2023-02-22T08:00:30;8.80;94.70
6792;DHT22;3433;48.730;9.108;2023-02-22T08:03:19;9.00;94.90
6792;DHT22;3433;48.730;9.108;2023-02-22T08:06:07;9.20;95.10
6792;DHT22;3433;48.730;9.108;2023-02-22T08:08:54;9.50;95.70
6792;DHT22;3433;48.730;9.108;2023-02-22T08:11:43;9.70;96.40
6792;DHT22;3433;48.730;9.108;2023-02-22T08:14:30;9.90;96.20
6792;DHT22;3433;48.730;9.108;2023-02-22T08:17:17;10.20;95.90
6792;DHT22;3433;48.730;9.108;2023-02-22T08:20:06;10.40;95.80
6792;DHT22;3433;48.730;9.108;2023-02-22T08:22:54;10.60;95.50
6792;DHT22;3433;48.730;9.108;2023-02-22T08:25:41;10.80;95.50
6792;DHT22;3433;48.730;9.108;2023-02-22T08:28:30;11.00;95.30
6792;DHT22;3433;48.730;9.108;2023-02-22T08:31:18;11.20;95.20
6792;DHT22;3433;48.730;9.108;2023-02-22T08:34:05;11.40;95.10
6792;DHT22;3433;48.730;9.108;2023-02-22T08:36:53;11.60;95.10
6792;DHT22;3433;48.730;9.108;2023-02-22T08:39:40;11.80;95.10
6792;DHT22;3433;48.730;9.108;2023-02-22T08:42:28;12.00;95.00
6792;DHT22;3433;48.730;9.108;2023-02-22T08:45:16;12.20;95.20
6792;DHT22;3433;48.730;9.108;2023-02-22T08:48:04;12.30;95.10
6792;DHT22;3433;48.730;9.108;2023-02-22T08:50:52;12.50;95.10
6792;DHT22;3433;48.730;9.108;2023-02-22T08:53:39;12.70;95.10
6792;DHT22;3433;48.730;9.108;2023-02-22T08:56:26;12.80;95.10
6792;DHT22;3433;48.730;9.108;2023-02-22T08:59:15;13.00;95.10
6792;DHT22;3433;48.730;9.108;2023-02-22T09:02:04;13.10;95.10
6792;DHT22;3433;48.730;9.108;2023-02-22T09:04:51;13.30;95.10
6792;DHT22;3433;48.730;9.108;2023-02-22T09:07:40;13.40;94.80
6792;DHT22;3433;48.730;9.108;2023-02-22T09:10:30;13.50;94.70
6792;DHT22;3433;48.730;9.108;2023-02-22T09:13:17;13.60;94.80
6792;DHT22;3433;48.730;9.108;2023-02-22T09:16:05;13.80;94.60
6792;DHT22;3433;48.730;9.108;2023-02-22T09:18:54;13.90;94.50
6792;DHT22;3433;48.730;9.108;2023-02-22T09:21:41;14.00;94.40
6792;DHT22;3433;48.730;9.108;2023-02-22T09:24:28;14.10;94.60
6792;DHT22;3433;48.730;9.108;2023-02-22T09:27:16;14.20;94.20
6792;DHT22;3433;48.730;9.108;2023-02-22T09:30:05;14.30;93.70
6792;DHT22;3433;48.730;9.108;2023-02-22T09:32:59;14.50;93.90
6792;DHT22;3433;48.730;9.108;2023-02-22T09:35:48;14.60;94.20
6792;DHT22;3433;48.730;9.108;2023-02-22T09:38:36;14.80;94.30
6792;DHT22;3433;48.730;9.108;2023-02-22T09:41:25;14.90;94.00
6792;DHT22;3433;48.730;9.108;2023-02-22T09:44:21;15.10;94.00
6792;DHT22;3433;48.730;9.108;2023-02-22T09:47:14;15.20;93.80
6792;DHT22;3433;48.730;9.108;2023-02-22T09:50:05;15.30;94.00
6792;DHT22;3433;48.730;9.108;2023-02-22T09:53:04;15.50;93.60
6792;DHT22;3433;48.730;9.108;2023-02-22T09:55:52;15.60;93.60
6792;DHT22;3433;48.730;9.108;2023-02-22T09:58:44;15.90;92.80
6792;DHT22;3433;48.730;9.108;2023-02-22T10:01:35;16.00;92.60
6792;DHT22;3433;48.730;9.108;2023-02-22T10:04:37;16.10;93.40
6792;DHT22;3433;48.730;9.108;2023-02-22T10:07:29;16.30;92.90
6792;DHT22;3433;48.730;9.108;2023-02-22T10:10:30;16.40;93.40
6792;DHT22;3433;48.730;9.108;2023-02-22T10:13:26;16.30;92.40
6792;DHT22;3433;48.730;9.108;2023-02-22T10:16:22;16.20;92.40
6792;DHT22;3433;48.730;9.108;2023-02-22T10:19:21;16.50;92.90
6792;DHT22;3433;48.730;9.108;2023-02-22T10:22:20;16.60;90.70
6792;DHT22;3433;48.730;9.108;2023-02-22T10:25:11;16.60;92.60
6792;DHT22;3433;48.730;9.108;2023-02-22T10:28:10;16.80;91.60
6792;DHT22;3433;48.730;9.108;2023-02-22T10:31:02;16.80;92.20
6792;DHT22;3433;48.730;9.108;2023-02-22T10:33:56;17.00;92.20
6792;DHT22;3433;48.730;9.108;2023-02-22T10:36:47;17.20;91.60
6792;DHT22;3433;48.730;9.108;2023-02-22T10:39:37;17.30;92.20
6792;DHT22;3433;48.730;9.108;2023-02-22T10:42:25;17.40;92.10
6792;DHT22;3433;48.730;9.108;2023-02-22T10:45:20;17.40;91.70
6792;DHT22;3433;48.730;9.108;2023-02-22T10:48:10;17.50;90.70
6792;DHT22;3433;48.730;9.108;2023-02-22T10:51:01;17.50;91.20
6792;DHT22;3433;48.730;9.108;2023-02-22T10:53:57;17.70;90.40
6792;DHT22;3433;48.730;9.108;2023-02-22T10:56:46;17.70;90.30
6792;DHT22;3433;48.730;9.108;2023-02-22T10:59:35;17.90;90.90
6792;DHT22;3433;48.730;9.108;2023-02-22T11:02:28;18.00;91.20
6792;DHT22;3433;48.730;9.108;2023-02-22T11:05:26;18.10;91.20
6792;DHT22;3433;48.730;9.108;2023-02-22T11:08:26;18.20;90.20
6792;DHT22;3433;48.730;9.108;2023-02-22T11:11:21;18.20;90.70
6792;DHT22;3433;48.730;9.108;2023-02-22T11:14:11;18.40;90.30
6792;DHT22;3433;48.730;9.108;2023-02-22T11:17:00;18.50;90.80
6792;DHT22;3433;48.730;9.108;2023-02-22T11:19:49;18.30;90.40
6792;DHT22;3433;48.730;9.108;2023-02-22T11:22:39;18.30;90.40
6792;DHT22;3433;48.730;9.108;2023-02-22T11:25:29;18.20;89.40
6792;DHT22;3433;48.730;9.108;2023-02-22T11:28:20;18.10;90.30
6792;DHT22;3433;48.730;9.108;2023-02-22T11:31:21;18.00;88.60
6792;DHT22;3433;48.730;9.108;2023-02-22T11:34:25;17.90;90.10
6792;DHT22;3433;48.730;9.108;2023-02-22T11:37:26;17.90;90.10
6792;DHT22;3433;48.730;9.108;2023-02-22T11:40:17;17.90;90.20
6792;DHT22;3433;48.730;9.108;2023-02-22T11:43:08;17.70;90.20
6792;DHT22;3433;48.730;9.108;2023-02-22T11:46:00;17.70;90.60
6792;DHT22;3433;48.730;9.108;2023-02-22T11:48:56;17.70;90.70
6792;DHT22;3433;48.730;9.108;2023-02-22T11:51:53;17.80;89.80
6792;DHT22;3433;48.730;9.108;2023-02-22T11:54:55;17.60;85.60
6792;DHT22;3433;48.730;9.108;2023-02-22T11:57:54;17.20;88.60
6792;DHT22;3433;48.730;9.108;2023-02-22T12:00:51;17.10;88.80
6792;DHT22;3433;48.730;9.108;2023-02-22T12:04:11;17.00;86.90
6792;DHT22;3433;48.730;9.108;2023-02-22T12:07:20;16.90;90.00
6792;DHT22;3433;48.730;9.108;2023-02-22T12:10:20;16.90;90.10
6792;DHT22;3433;48.730;9.108;2023-02-22T12:13:29;17.10;90.10
6792;DHT22;3433;48.730;9.108;2023-02-22T12:16:25;17.40;90.50
6792;DHT22;3433;48.730;9.108;2023-02-22T12:19:20;17.60;90.70
6792;DHT22;3433;48.730;9.108;2023-02-22T12:22:16;17.60;90.20
6792;DHT22;3433;48.730;9.108;2023-02-22T12:25:16;17.80;89.80
6792;DHT22;3433;48.730;9.108;2023-02-22T12:28:15;17.70;90.50
6792;DHT22;3433;48.730;9.108;2023-02-22T12:31:09;17.80;90.50
6792;DHT22;3433;48.730;9.108;2023-02-22T12:34:06;18.00;91.10
6792;DHT22;3433;48.730;9.108;2023-02-22T12:37:02;18.20;91.00
6792;DHT22;3433;48.730;9.108;2023-02-22T12:39:57;18.30;90.20
6792;DHT22;3433;48.730;9.108;2023-02-22T12:42:55;18.20;90.50
6792;DHT22;3433;48.730;9.108;2023-02-22T12:45:47;18.40;90.40
6792;DHT22;3433;48.730;9.108;2023-02-22T12:48:42;18.40;90.80
6792;DHT22;3433;48.730;9.108;2023-02-22T12:51:38;18.40;90.00
6792;DHT22;3433;48.730;9.108;2023-02-22T12:54:36;18.40;89.20
6792;DHT22;3433;48.730;9.108;2023-02-22T12:57:35;18.60;90.10
6792;DHT22;3433;48.730;9.108;2023-02-22T13:00:34;18.70;89.50
6792;DHT22;3433;48.730;9.108;2023-02-22T13:03:31;18.80;90.90
6792;DHT22;3433;48.730;9.108;2023-02-22T13:06:35;19.20;91.20
6792;DHT22;3433;48.730;9.108;2023-02-22T13:09:55;19.60;91.70
6792;DHT22;3433;48.730;9.108;2023-02-22T13:12:51;20.10;91.60
6792;DHT22;3433;48.730;9.108;2023-02-22T13:15:45;20.70;92.20
6792;DHT22;3433;48.730;9.108;2023-02-22T13:18:38;21.30;91.10
6792;DHT22;3433;48.730;9.108;2023-02-22T13:21:37;21.60;91.50
6792;DHT22;3433;48.730;9.108;2023-02-22T13:24:29;22.00;91.10
6792;DHT22;3433;48.730;9.108;2023-02-22T13:27:22;21.80;88.10
6792;DHT22;3433;48.730;9.108;2023-02-22T13:30:19;21.70;89.00
6792;DHT22;3433;48.730;9.108;2023-02-22T13:33:27;21.90;88.80
6792;DHT22;3433;48.730;9.108;2023-02-22T13:36:28;21.90;86.60
6792;DHT22;3433;48.730;9.108;2023-02-22T13:39:33;21.80;89.10
6792;DHT22;3433;48.730;9.108;2023-02-22T13:42:40;21.40;85.90
6792;DHT22;3433;48.730;9.108;2023-02-22T13:49:34;21.20;85.50
6792;DHT22;3433;48.730;9.108;2023-02-22T13:52:26;20.80;86.20
6792;DHT22;3433;48.730;9.108;2023-02-22T13:55:18;20.50;85.90
6792;DHT22;3433;48.730;9.108;2023-02-22T13:58:07;20.10;85.80
6792;DHT22;3433;48.730;9.108;2023-02-22T14:00:56;19.90;85.10
6792;DHT22;3433;48.730;9.108;2023-02-22T14:03:44;19.60;86.10
6792;DHT22;3433;48.730;9.108;2023-02-22T14:06:38;19.40;85.20
6792;DHT22;3433;48.730;9.108;2023-02-22T14:09:45;19.10;85.60
6792;DHT22;3433;48.730;9.108;2023-02-22T14:12:53;18.90;86.00
6792;DHT22;3433;48.730;9.108;2023-02-22T14:16:21;18.80;86.40
6792;DHT22;3433;48.730;9.108;2023-02-22T14:19:14;18.50;85.20
6792;DHT22;3433;48.730;9.108;2023-02-22T14:22:04;18.30;86.00
6792;DHT22;3433;48.730;9.108;2023-02-22T14:24:53;18.20;86.60
6792;DHT22;3433;48.730;9.108;2023-02-22T14:27:41;18.10;86.90
6792;DHT22;3433;48.730;9.108;2023-02-22T14:30:30;17.80;86.80
6792;DHT22;3433;48.730;9.108;2023-02-22T14:33:56;17.80;87.30
6792;DHT22;3433;48.730;9.108;2023-02-22T14:36:48;17.60;87.20
6792;DHT22;3433;48.730;9.108;2023-02-22T14:39:42;17.50;87.30
6792;DHT22;3433;48.730;9.108;2023-02-22T14:42:33;17.40;88.10
6792;DHT22;3433;48.730;9.108;2023-02-22T14:45:24;17.30;87.80
6792;DHT22;3433;48.730;9.108;2023-02-22T14:48:17;17.10;87.00
6792;DHT22;3433;48.730;9.108;2023-02-22T14:51:12;17.10;87.50
6792;DHT22;3433;48.730;9.108;2023-02-22T14:54:02;17.00;87.30
6792;DHT22;3433;48.730;9.108;2023-02-22T14:56:59;16.90;87.70
6792;DHT22;3433;48.730;9.108;2023-02-22T15:00:05;16.80;87.50
6792;DHT22;3433;48.730;9.108;2023-02-22T15:03:04;16.60;87.60
6792;DHT22;3433;48.730;9.108;2023-02-22T15:05:52;16.60;87.90
6792;DHT22;3433;48.730;9.108;2023-02-22T15:08:39;16.50;88.10
6792;DHT22;3433;48.730;9.108;2023-02-22T15:11:28;16.50;88.40
6792;DHT22;3433;48.730;9.108;2023-02-22T15:14:20;16.40;88.80
6792;DHT22;3433;48.730;9.108;2023-02-22T15:17:12;16.40;88.80
6792;DHT22;3433;48.730;9.108;2023-02-22T15:20:05;16.30;89.00
6792;DHT22;3433;48.730;9.108;2023-02-22T15:22:57;16.30;89.20
6792;DHT22;3433;48.730;9.108;2023-02-22T15:25:46;16.20;89.10
6792;DHT22;3433;48.730;9.108;2023-02-22T15:28:35;16.20;89.20
6792;DHT22;3433;48.730;9.108;2023-02-22T15:31:28;16.10;89.50
6792;DHT22;3433;48.730;9.108;2023-02-22T15:34:20;16.00;89.40
6792;DHT22;3433;48.730;9.108;2023-02-22T15:37:19;16.00;89.50
6792;DHT22;3433;48.730;9.108;2023-02-22T15:40:16;15.90;90.00
6792;DHT22;3433;48.730;9.108;2023-02-22T15:43:05;15.80;90.00
6792;DHT22;3433;48.730;9.108;2023-02-22T15:45:53;15.70;90.00
6792;DHT22;3433;48.730;9.108;2023-02-22T15:48:42;15.70;90.00
6792;DHT22;3433;48.730;9.108;2023-02-22T15:51:29;15.60;89.90
6792;DHT22;3433;48.730;9.108;2023-02-22T15:54:17;15.50;90.00
6792;DHT22;3433;48.730;9.108;2023-02-22T15:57:07;15.60;90.10
6792;DHT22;3433;48.730;9.108;2023-02-22T15:59:56;15.50;90.00
6792;DHT22;3433;48.730;9.108;2023-02-22T16:02:43;15.50;90.10
6792;DHT22;3433;48.730;9.108;2023-02-22T16:05:37;15.40;90.30
6792;DHT22;3433;48.730;9.108;2023-02-22T16:08:40;15.30;90.10
6792;DHT22;3433;48.730;9.108;2023-02-22T16:11:31;15.30;90.30
6792;DHT22;3433;48.730;9.108;2023-02-22T16:14:27;15.30;90.20
6792;DHT22;3433;48.730;9.108;2023-02-22T16:17:26;15.20;90.60
6792;DHT22;3433;48.730;9.108;2023-02-22T16:20:33;15.10;90.30
6792;DHT22;3433;48.730;9.108;2023-02-22T16:23:23;15.00;90.30
6792;DHT22;3433;48.730;9.108;2023-02-22T16:26:25;15.00;90.20
6792;DHT22;3433;48.730;9.108;2023-02-22T16:29:24;15.00;90.30
6792;DHT22;3433;48.730;9.108;2023-02-22T16:32:11;14.90;90.30
6792;DHT22;3433;48.730;9.108;2023-02-22T16:35:00;14.90;90.40
6792;DHT22;3433;48.730;9.108;2023-02-22T16:37:50;14.90;90.40
6792;DHT22;3433;48.730;9.108;2023-02-22T16:40:40;14.80;90.50
6792;DHT22;3433;48.730;9.108;2023-02-22T16:43:30;14.80;90.50
6792;DHT22;3433;48.730;9.108;2023-02-22T16:46:18;14.70;90.50
6792;DHT22;3433;48.730;9.108;2023-02-22T16:49:05;14.70;90.60
6792;DHT22;3433;48.730;9.108;2023-02-22T16:51:55;14.60;90.50
6792;DHT22;3433;48.730;9.108;2023-02-22T16:54:44;14.50;90.50
6792;DHT22;3433;48.730;9.108;2023-02-22T16:57:32;14.50;90.60
6792;DHT22;3433;48.730;9.108;2023-02-22T17:00:21;14.40;90.60
6792;DHT22;3433;48.730;9.108;2023-02-22T17:03:17;14.40;90.60
6792;DHT22;3433;48.730;9.108;2023-02-22T17:06:05;14.30;90.60
6792;DHT22;3433;48.730;9.108;2023-02-22T17:08:55;14.30;90.70
6792;DHT22;3433;48.730;9.108;2023-02-22T17:11:44;14.20;90.60
6792;DHT22;3433;48.730;9.108;2023-02-22T17:14:33;14.20;90.60
6792;DHT22;3433;48.730;9.108;2023-02-22T17:17:21;14.10;90.60
6792;DHT22;3433;48.730;9.108;2023-02-22T17:20:09;14.10;90.90
6792;DHT22;3433;48.730;9.108;2023-02-22T17:22:57;14.00;90.70
6792;DHT22;3433;48.730;9.108;2023-02-22T17:25:49;13.90;90.60
6792;DHT22;3433;48.730;9.108;2023-02-22T17:28:39;13.90;90.60
6792;DHT22;3433;48.730;9.108;2023-02-22T17:31:29;13.80;90.60
6792;DHT22;3433;48.730;9.108;2023-02-22T17:34:16;13.70;90.60
6792;DHT22;3433;48.730;9.108;2023-02-22T17:37:03;13.70;90.60
6792;DHT22;3433;48.730;9.108;2023-02-22T17:39:51;13.60;90.60
6792;DHT22;3433;48.730;9.108;2023-02-22T17:42:41;13.50;90.60
6792;DHT22;3433;48.730;9.108;2023-02-22T17:45:30;13.50;90.60
6792;DHT22;3433;48.730;9.108;2023-02-22T17:48:17;13.40;90.60
6792;DHT22;3433;48.730;9.108;2023-02-22T17:51:06;13.30;90.60
6792;DHT22;3433;48.730;9.108;2023-02-22T17:53:54;13.30;90.50
6792;DHT22;3433;48.730;9.108;2023-02-22T17:56:41;13.30;90.50
6792;DHT22;3433;48.730;9.108;2023-02-22T17:59:28;13.20;90.60
6792;DHT22;3433;48.730;9.108;2023-02-22T18:02:17;13.10;90.60
6792;DHT22;3433;48.730;9.108;2023-02-22T18:08:47;13.00;90.70
6792;DHT22;3433;48.730;9.108;2023-02-22T18:11:38;12.90;90.70
6792;DHT22;3433;48.730;9.108;2023-02-22T18:14:25;12.90;90.70
6792;DHT22;3433;48.730;9.108;2023-02-22T18:17:14;12.90;90.70
6792;DHT22;3433;48.730;9.108;2023-02-22T18:20:03;12.80;90.70
6792;DHT22;3433;48.730;9.108;2023-02-22T18:22:57;12.70;90.80
6792;DHT22;3433;48.730;9.108;2023-02-22T18:25:45;12.70;90.70
6792;DHT22;3433;48.730;9.108;2023-02-22T18:28:34;12.70;90.90
6792;DHT22;3433;48.730;9.108;2023-02-22T18:31:22;12.60;90.90
6792;DHT22;3433;48.730;9.108;2023-02-22T18:34:10;12.60;90.90
6792;DHT22;3433;48.730;9.108;2023-02-22T18:36:59;12.60;91.10
6792;DHT22;3433;48.730;9.108;2023-02-22T18:39:46;12.60;91.00
6792;DHT22;3433;48.730;9.108;2023-02-22T18:42:35;12.60;91.20
6792;DHT22;3433;48.730;9.108;2023-02-22T18:45:22;12.50;91.10
6792;DHT22;3433;48.730;9.108;2023-02-22T18:48:09;12.50;91.20
6792;DHT22;3433;48.730;9.108;2023-02-22T18:50:58;12.50;91.30
6792;DHT22;3433;48.730;9.108;2023-02-22T18:53:47;12.40;91.30
6792;DHT22;3433;48.730;9.108;2023-02-22T18:56:39;12.40;91.30
6792;DHT22;3433;48.730;9.108;2023-02-22T18:59:27;12.40;91.20